sensor_id;sensor_type;location;lat;lon;timestamp;P1;durP1;ratioP1;P2;durP2;ratioP2
54705;SDS011;40603;48.774;8.916;2023-05-10T00:01:15;0.75;;;0.60;;
54705;SDS011;40603;48.774;8.916;2023-05-10T00:03:40;2.25;;;0.30;;
54705;SDS011;40603;48.774;8.916;2023-05-10T00:06:06;0.20;;;0.20;;
54705;SDS011;40603;48.774;8.916;2023-05-10T00:08:31;1.17;;;0.35;;
54705;SDS011;40603;48.774;8.916;2023-05-10T00:10:56;1.75;;;0.20;;
54705;SDS011;40603;48.774;8.916;2023-05-10T00:13:21;0.15;;;0.15;;
54705;SDS011;40603;48.774;8.916;2023-05-10T00:15:47;0.30;;;0.30;;
54705;SDS011;40603;48.774;8.916;2023-05-10T00:18:12;2.70;;;0.55;;
54705;SDS011;40603;48.774;8.916;2023-05-10T00:20:37;0.50;;;0.28;;
54705;SDS011;40603;48.774;8.916;2023-05-10T00:23:03;4.90;;;0.32;;
54705;SDS011;40603;48.774;8.916;2023-05-10T00:25:28;1.83;;;0.40;;
54705;SDS011;40603;48.774;8.916;2023-05-10T00:27:53;0.20;;;0.20;;
54705;SDS011;40603;48.774;8.916;2023-05-10T00:30:20;0.20;;;0.20;;
54705;SDS011;40603;48.774;8.916;2023-05-10T00:32:45;1.10;;;0.17;;
54705;SDS011;40603;48.774;8.916;2023-05-10T00:35:12;0.38;;;0.38;;
54705;SDS011;40603;48.774;8.916;2023-05-10T00:37:38;0.20;;;0.20;;
54705;SDS011;40603;48.774;8.916;2023-05-10T00:40:03;0.10;;;0.10;;
54705;SDS011;40603;48.774;8.916;2023-05-10T00:42:29;0.30;;;0.30;;
54705;SDS011;40603;48.774;8.916;2023-05-10T00:44:55;0.47;;;0.20;;
54705;SDS011;40603;48.774;8.916;2023-05-10T00:47:21;0.30;;;0.30;;
54705;SDS011;40603;48.774;8.916;2023-05-10T00:49:46;0.30;;;0.30;;
54705;SDS011;40603;48.774;8.916;2023-05-10T00:52:12;1.25;;;0.20;;
54705;SDS011;40603;48.774;8.916;2023-05-10T00:54:37;0.20;;;0.20;;
54705;SDS011;40603;48.774;8.916;2023-05-10T00:57:03;0.10;;;0.10;;
54705;SDS011;40603;48.774;8.916;2023-05-10T00:59:28;2.83;;;0.60;;
54705;SDS011;40603;48.774;8.916;2023-05-10T01:01:54;0.22;;;0.22;;
54705;SDS011;40603;48.774;8.916;2023-05-10T01:04:19;1.55;;;0.32;;
54705;SDS011;40603;48.774;8.916;2023-05-10T01:06:50;1.38;;;0.75;;
54705;SDS011;40603;48.774;8.916;2023-05-10T01:09:16;0.40;;;0.30;;
54705;SDS011;40603;48.774;8.916;2023-05-10T01:11:42;0.20;;;0.20;;
54705;SDS011;40603;48.774;8.916;2023-05-10T01:14:07;1.13;;;0.30;;
54705;SDS011;40603;48.774;8.916;2023-05-10T01:16:34;3.60;;;0.28;;
54705;SDS011;40603;48.774;8.916;2023-05-10T01:19:01;0.25;;;0.25;;
54705;SDS011;40603;48.774;8.916;2023-05-10T01:21:47;1.55;;;0.20;;
54705;SDS011;40603;48.774;8.916;2023-05-10T01:35:30;0.30;;;0.30;;
54705;SDS011;40603;48.774;8.916;2023-05-10T01:38:01;0.40;;;0.32;;
54705;SDS011;40603;48.774;8.916;2023-05-10T01:40:40;0.30;;;0.30;;
54705;SDS011;40603;48.774;8.916;2023-05-10T01:43:11;0.47;;;0.32;;
54705;SDS011;40603;48.774;8.916;2023-05-10T01:45:50;1.35;;;0.30;;
54705;SDS011;40603;48.774;8.916;2023-05-10T01:48:35;0.70;;;0.40;;
54705;SDS011;40603;48.774;8.916;2023-05-10T01:51:03;0.40;;;0.40;;
54705;SDS011;40603;48.774;8.916;2023-05-10T01:53:29;0.40;;;0.40;;
54705;SDS011;40603;48.774;8.916;2023-05-10T01:55:55;2.22;;;0.38;;
54705;SDS011;40603;48.774;8.916;2023-05-10T01:58:22;0.40;;;0.40;;
54705;SDS011;40603;48.774;8.916;2023-05-10T02:00:50;7.47;;;0.45;;
54705;SDS011;40603;48.774;8.916;2023-05-10T02:03:17;0.50;;;0.50;;
54705;SDS011;40603;48.774;8.916;2023-05-10T02:05:44;0.43;;;0.40;;
54705;SDS011;40603;48.774;8.916;2023-05-10T02:08:10;0.40;;;0.40;;
54705;SDS011;40603;48.774;8.916;2023-05-10T02:10:36;3.22;;;0.60;;
54705;SDS011;40603;48.774;8.916;2023-05-10T02:13:02;0.40;;;0.40;;
54705;SDS011;40603;48.774;8.916;2023-05-10T02:15:28;0.40;;;0.38;;
54705;SDS011;40603;48.774;8.916;2023-05-10T02:17:55;0.43;;;0.43;;
54705;SDS011;40603;48.774;8.916;2023-05-10T02:20:21;1.38;;;0.60;;
54705;SDS011;40603;48.774;8.916;2023-05-10T02:22:48;1.30;;;0.40;;
54705;SDS011;40603;48.774;8.916;2023-05-10T02:25:14;1.08;;;0.50;;
54705;SDS011;40603;48.774;8.916;2023-05-10T02:27:40;0.50;;;0.50;;
54705;SDS011;40603;48.774;8.916;2023-05-10T02:30:06;2.95;;;0.77;;
54705;SDS011;40603;48.774;8.916;2023-05-10T02:32:32;1.30;;;0.70;;
54705;SDS011;40603;48.774;8.916;2023-05-10T02:34:59;0.77;;;0.73;;
54705;SDS011;40603;48.774;8.916;2023-05-10T02:37:25;2.45;;;0.65;;
54705;SDS011;40603;48.774;8.916;2023-05-10T02:39:50;5.45;;;0.90;;
54705;SDS011;40603;48.774;8.916;2023-05-10T02:42:22;5.10;;;0.68;;
54705;SDS011;40603;48.774;8.916;2023-05-10T02:44:51;1.75;;;0.90;;
54705;SDS011;40603;48.774;8.916;2023-05-10T02:47:18;1.92;;;0.80;;
54705;SDS011;40603;48.774;8.916;2023-05-10T02:49:44;3.25;;;0.85;;
54705;SDS011;40603;48.774;8.916;2023-05-10T02:52:09;1.65;;;0.82;;
54705;SDS011;40603;48.774;8.916;2023-05-10T02:54:43;3.08;;;0.93;;
54705;SDS011;40603;48.774;8.916;2023-05-10T02:57:10;2.10;;;0.95;;
54705;SDS011;40603;48.774;8.916;2023-05-10T02:59:39;2.00;;;0.93;;
54705;SDS011;40603;48.774;8.916;2023-05-10T03:02:05;1.10;;;0.80;;
54705;SDS011;40603;48.774;8.916;2023-05-10T03:04:30;3.30;;;1.00;;
54705;SDS011;40603;48.774;8.916;2023-05-10T03:06:55;1.08;;;0.98;;
54705;SDS011;40603;48.774;8.916;2023-05-10T03:09:21;3.05;;;1.10;;
54705;SDS011;40603;48.774;8.916;2023-05-10T03:17:54;3.70;;;1.02;;
54705;SDS011;40603;48.774;8.916;2023-05-10T03:20:22;1.05;;;0.95;;
54705;SDS011;40603;48.774;8.916;2023-05-10T03:22:55;1.60;;;1.13;;
54705;SDS011;40603;48.774;8.916;2023-05-10T03:25:26;2.45;;;0.90;;
54705;SDS011;40603;48.774;8.916;2023-05-10T03:27:52;3.90;;;0.85;;
54705;SDS011;40603;48.774;8.916;2023-05-10T03:30:18;1.10;;;0.98;;
54705;SDS011;40603;48.774;8.916;2023-05-10T03:32:44;1.63;;;1.17;;
54705;SDS011;40603;48.774;8.916;2023-05-10T03:35:10;1.33;;;1.23;;
54705;SDS011;40603;48.774;8.916;2023-05-10T03:37:37;1.63;;;1.23;;
54705;SDS011;40603;48.774;8.916;2023-05-10T03:40:02;3.03;;;0.90;;
54705;SDS011;40603;48.774;8.916;2023-05-10T03:42:28;2.70;;;1.00;;
54705;SDS011;40603;48.774;8.916;2023-05-10T03:44:53;1.65;;;1.10;;
54705;SDS011;40603;48.774;8.916;2023-05-10T03:47:19;2.47;;;1.13;;
54705;SDS011;40603;48.774;8.916;2023-05-10T03:49:44;1.05;;;1.00;;
54705;SDS011;40603;48.774;8.916;2023-05-10T03:52:10;0.88;;;0.88;;
54705;SDS011;40603;48.774;8.916;2023-05-10T03:54:35;1.50;;;1.05;;
54705;SDS011;40603;48.774;8.916;2023-05-10T03:57:01;1.00;;;1.00;;
54705;SDS011;40603;48.774;8.916;2023-05-10T03:59:27;3.67;;;1.10;;
54705;SDS011;40603;48.774;8.916;2023-05-10T04:01:53;0.90;;;0.90;;
54705;SDS011;40603;48.774;8.916;2023-05-10T04:04:18;1.02;;;0.95;;
54705;SDS011;40603;48.774;8.916;2023-05-10T04:06:45;1.05;;;1.02;;
54705;SDS011;40603;48.774;8.916;2023-05-10T04:09:11;1.10;;;1.00;;
54705;SDS011;40603;48.774;8.916;2023-05-10T04:11:36;3.13;;;1.10;;
54705;SDS011;40603;48.774;8.916;2023-05-10T04:14:01;0.90;;;0.90;;
54705;SDS011;40603;48.774;8.916;2023-05-10T04:16:26;2.95;;;1.13;;
54705;SDS011;40603;48.774;8.916;2023-05-10T04:18:52;1.10;;;1.00;;
54705;SDS011;40603;48.774;8.916;2023-05-10T04:21:17;3.35;;;1.40;;
54705;SDS011;40603;48.774;8.916;2023-05-10T04:23:42;2.63;;;0.80;;
54705;SDS011;40603;48.774;8.916;2023-05-10T04:26:08;1.00;;;0.90;;
54705;SDS011;40603;48.774;8.916;2023-05-10T04:28:33;1.00;;;0.90;;
54705;SDS011;40603;48.774;8.916;2023-05-10T04:31:02;3.30;;;0.82;;
54705;SDS011;40603;48.774;8.916;2023-05-10T04:33:28;1.88;;;1.15;;
54705;SDS011;40603;48.774;8.916;2023-05-10T04:35:54;1.42;;;1.10;;
54705;SDS011;40603;48.774;8.916;2023-05-10T04:38:19;2.13;;;0.95;;
54705;SDS011;40603;48.774;8.916;2023-05-10T04:40:44;3.40;;;1.00;;
54705;SDS011;40603;48.774;8.916;2023-05-10T04:43:10;5.15;;;1.15;;
54705;SDS011;40603;48.774;8.916;2023-05-10T04:45:35;1.55;;;1.35;;
54705;SDS011;40603;48.774;8.916;2023-05-10T04:48:00;2.60;;;1.10;;
54705;SDS011;40603;48.774;8.916;2023-05-10T04:50:26;1.10;;;0.70;;
54705;SDS011;40603;48.774;8.916;2023-05-10T04:52:51;1.40;;;1.00;;
54705;SDS011;40603;48.774;8.916;2023-05-10T04:55:16;1.40;;;1.10;;
54705;SDS011;40603;48.774;8.916;2023-05-10T04:57:42;1.25;;;1.05;;
54705;SDS011;40603;48.774;8.916;2023-05-10T05:00:07;1.55;;;1.10;;
54705;SDS011;40603;48.774;8.916;2023-05-10T05:02:33;3.25;;;1.15;;
54705;SDS011;40603;48.774;8.916;2023-05-10T05:04:58;2.95;;;1.15;;
54705;SDS011;40603;48.774;8.916;2023-05-10T05:07:23;1.02;;;1.00;;
54705;SDS011;40603;48.774;8.916;2023-05-10T05:09:49;1.60;;;1.00;;
54705;SDS011;40603;48.774;8.916;2023-05-10T05:12:14;1.77;;;1.05;;
54705;SDS011;40603;48.774;8.916;2023-05-10T05:14:40;1.38;;;1.00;;
54705;SDS011;40603;48.774;8.916;2023-05-10T05:17:06;2.58;;;1.10;;
54705;SDS011;40603;48.774;8.916;2023-05-10T05:19:31;1.40;;;1.00;;
54705;SDS011;40603;48.774;8.916;2023-05-10T05:21:57;3.17;;;1.00;;
54705;SDS011;40603;48.774;8.916;2023-05-10T05:24:22;1.25;;;1.15;;
54705;SDS011;40603;48.774;8.916;2023-05-10T05:26:48;4.15;;;0.93;;
54705;SDS011;40603;48.774;8.916;2023-05-10T05:29:13;1.52;;;0.98;;
54705;SDS011;40603;48.774;8.916;2023-05-10T05:31:38;1.95;;;1.50;;
54705;SDS011;40603;48.774;8.916;2023-05-10T05:34:04;12.25;;;1.20;;
54705;SDS011;40603;48.774;8.916;2023-05-10T05:36:29;5.80;;;1.25;;
54705;SDS011;40603;48.774;8.916;2023-05-10T05:38:56;3.58;;;1.27;;
54705;SDS011;40603;48.774;8.916;2023-05-10T05:41:22;1.05;;;1.00;;
54705;SDS011;40603;48.774;8.916;2023-05-10T05:43:48;2.03;;;0.93;;
54705;SDS011;40603;48.774;8.916;2023-05-10T05:46:14;2.97;;;1.10;;
54705;SDS011;40603;48.774;8.916;2023-05-10T05:48:39;1.67;;;0.90;;
54705;SDS011;40603;48.774;8.916;2023-05-10T05:51:04;2.65;;;0.95;;
54705;SDS011;40603;48.774;8.916;2023-05-10T05:53:30;1.23;;;1.13;;
54705;SDS011;40603;48.774;8.916;2023-05-10T05:55:56;1.95;;;1.27;;
54705;SDS011;40603;48.774;8.916;2023-05-10T05:58:22;2.30;;;1.52;;
54705;SDS011;40603;48.774;8.916;2023-05-10T06:00:48;3.70;;;1.48;;
54705;SDS011;40603;48.774;8.916;2023-05-10T06:03:13;2.08;;;1.20;;
54705;SDS011;40603;48.774;8.916;2023-05-10T06:05:39;3.38;;;1.40;;
54705;SDS011;40603;48.774;8.916;2023-05-10T06:08:04;3.33;;;1.33;;
54705;SDS011;40603;48.774;8.916;2023-05-10T06:10:30;2.05;;;1.10;;
54705;SDS011;40603;48.774;8.916;2023-05-10T06:12:55;1.77;;;1.20;;
54705;SDS011;40603;48.774;8.916;2023-05-10T06:15:21;1.45;;;1.30;;
54705;SDS011;40603;48.774;8.916;2023-05-10T06:17:46;2.70;;;1.17;;
54705;SDS011;40603;48.774;8.916;2023-05-10T06:20:14;2.58;;;1.35;;
54705;SDS011;40603;48.774;8.916;2023-05-10T06:22:39;3.83;;;1.48;;
54705;SDS011;40603;48.774;8.916;2023-05-10T06:25:05;2.90;;;1.40;;
54705;SDS011;40603;48.774;8.916;2023-05-10T06:27:30;3.65;;;1.60;;
54705;SDS011;40603;48.774;8.916;2023-05-10T06:29:56;3.13;;;1.40;;
54705;SDS011;40603;48.774;8.916;2023-05-10T06:32:21;1.30;;;1.20;;
54705;SDS011;40603;48.774;8.916;2023-05-10T06:34:47;3.85;;;1.40;;
54705;SDS011;40603;48.774;8.916;2023-05-10T06:37:15;2.17;;;1.25;;
54705;SDS011;40603;48.774;8.916;2023-05-10T06:39:40;3.90;;;1.33;;
54705;SDS011;40603;48.774;8.916;2023-05-10T06:42:05;3.78;;;1.75;;
54705;SDS011;40603;48.774;8.916;2023-05-10T06:44:31;8.40;;;1.67;;
54705;SDS011;40603;48.774;8.916;2023-05-10T06:46:56;3.17;;;1.15;;
54705;SDS011;40603;48.774;8.916;2023-05-10T06:49:21;1.65;;;1.17;;
54705;SDS011;40603;48.774;8.916;2023-05-10T06:51:47;1.95;;;1.40;;
54705;SDS011;40603;48.774;8.916;2023-05-10T06:54:13;1.48;;;1.15;;
54705;SDS011;40603;48.774;8.916;2023-05-10T06:56:38;5.25;;;1.30;;
54705;SDS011;40603;48.774;8.916;2023-05-10T06:59:03;3.42;;;1.35;;
54705;SDS011;40603;48.774;8.916;2023-05-10T07:01:29;1.40;;;1.30;;
54705;SDS011;40603;48.774;8.916;2023-05-10T07:03:54;3.85;;;1.35;;
54705;SDS011;40603;48.774;8.916;2023-05-10T07:06:20;3.33;;;1.40;;
54705;SDS011;40603;48.774;8.916;2023-05-10T07:08:45;1.20;;;1.10;;
54705;SDS011;40603;48.774;8.916;2023-05-10T07:11:10;2.75;;;1.40;;
54705;SDS011;40603;48.774;8.916;2023-05-10T07:13:36;3.50;;;1.10;;
54705;SDS011;40603;48.774;8.916;2023-05-10T07:16:02;6.28;;;1.58;;
54705;SDS011;40603;48.774;8.916;2023-05-10T07:18:29;4.38;;;1.30;;
54705;SDS011;40603;48.774;8.916;2023-05-10T07:20:54;2.13;;;1.30;;
54705;SDS011;40603;48.774;8.916;2023-05-10T07:23:20;1.77;;;1.30;;
54705;SDS011;40603;48.774;8.916;2023-05-10T07:25:46;2.97;;;1.00;;
54705;SDS011;40603;48.774;8.916;2023-05-10T07:28:12;3.80;;;1.10;;
54705;SDS011;40603;48.774;8.916;2023-05-10T07:30:38;2.50;;;1.02;;
54705;SDS011;40603;48.774;8.916;2023-05-10T07:33:03;9.60;;;1.00;;
54705;SDS011;40603;48.774;8.916;2023-05-10T07:35:28;2.75;;;1.10;;
54705;SDS011;40603;48.774;8.916;2023-05-10T07:37:54;0.98;;;0.88;;
54705;SDS011;40603;48.774;8.916;2023-05-10T07:40:19;1.58;;;0.60;;
54705;SDS011;40603;48.774;8.916;2023-05-10T07:42:44;0.75;;;0.50;;
54705;SDS011;40603;48.774;8.916;2023-05-10T07:45:10;1.15;;;0.60;;
54705;SDS011;40603;48.774;8.916;2023-05-10T07:47:35;2.50;;;0.82;;
54705;SDS011;40603;48.774;8.916;2023-05-10T07:50:01;1.05;;;0.70;;
54705;SDS011;40603;48.774;8.916;2023-05-10T07:52:26;0.40;;;0.40;;
54705;SDS011;40603;48.774;8.916;2023-05-10T07:54:51;0.70;;;0.60;;
54705;SDS011;40603;48.774;8.916;2023-05-10T07:57:17;1.73;;;0.63;;
54705;SDS011;40603;48.774;8.916;2023-05-10T07:59:43;3.22;;;0.60;;
54705;SDS011;40603;48.774;8.916;2023-05-10T08:02:09;0.57;;;0.50;;
54705;SDS011;40603;48.774;8.916;2023-05-10T08:04:34;1.02;;;0.70;;
54705;SDS011;40603;48.774;8.916;2023-05-10T08:07:00;1.70;;;0.50;;
54705;SDS011;40603;48.774;8.916;2023-05-10T08:09:25;1.45;;;0.73;;
54705;SDS011;40603;48.774;8.916;2023-05-10T08:11:50;4.15;;;0.70;;
54705;SDS011;40603;48.774;8.916;2023-05-10T08:14:16;0.77;;;0.50;;
54705;SDS011;40603;48.774;8.916;2023-05-10T08:16:41;4.75;;;0.57;;
54705;SDS011;40603;48.774;8.916;2023-05-10T08:19:07;1.50;;;0.60;;
54705;SDS011;40603;48.774;8.916;2023-05-10T08:21:32;1.75;;;0.40;;
54705;SDS011;40603;48.774;8.916;2023-05-10T08:23:57;0.90;;;0.60;;
54705;SDS011;40603;48.774;8.916;2023-05-10T08:26:23;0.50;;;0.50;;
54705;SDS011;40603;48.774;8.916;2023-05-10T08:28:48;2.83;;;0.60;;
54705;SDS011;40603;48.774;8.916;2023-05-10T08:31:13;0.50;;;0.50;;
54705;SDS011;40603;48.774;8.916;2023-05-10T08:33:39;0.68;;;0.68;;
54705;SDS011;40603;48.774;8.916;2023-05-10T08:36:04;1.00;;;0.50;;
54705;SDS011;40603;48.774;8.916;2023-05-10T08:38:30;1.35;;;0.68;;
54705;SDS011;40603;48.774;8.916;2023-05-10T08:40:55;0.52;;;0.52;;
54705;SDS011;40603;48.774;8.916;2023-05-10T08:43:26;6.22;;;0.50;;
54705;SDS011;40603;48.774;8.916;2023-05-10T08:45:53;2.22;;;0.63;;
54705;SDS011;40603;48.774;8.916;2023-05-10T08:48:19;0.45;;;0.40;;
54705;SDS011;40603;48.774;8.916;2023-05-10T08:50:45;0.52;;;0.40;;
54705;SDS011;40603;48.774;8.916;2023-05-10T08:53:12;1.15;;;0.60;;
54705;SDS011;40603;48.774;8.916;2023-05-10T08:55:39;0.50;;;0.50;;
54705;SDS011;40603;48.774;8.916;2023-05-10T08:58:05;2.40;;;0.55;;
54705;SDS011;40603;48.774;8.916;2023-05-10T09:00:31;0.50;;;0.43;;
54705;SDS011;40603;48.774;8.916;2023-05-10T09:02:57;0.60;;;0.60;;
54705;SDS011;40603;48.774;8.916;2023-05-10T09:05:23;1.27;;;0.60;;
54705;SDS011;40603;48.774;8.916;2023-05-10T09:07:48;2.35;;;0.60;;
54705;SDS011;40603;48.774;8.916;2023-05-10T09:10:14;2.38;;;0.55;;
54705;SDS011;40603;48.774;8.916;2023-05-10T09:12:40;2.00;;;0.50;;
54705;SDS011;40603;48.774;8.916;2023-05-10T09:15:05;0.60;;;0.35;;
54705;SDS011;40603;48.774;8.916;2023-05-10T09:17:32;0.35;;;0.32;;
54705;SDS011;40603;48.774;8.916;2023-05-10T09:19:59;0.75;;;0.50;;
54705;SDS011;40603;48.774;8.916;2023-05-10T09:22:24;0.70;;;0.25;;
54705;SDS011;40603;48.774;8.916;2023-05-10T09:27:36;0.47;;;0.47;;
54705;SDS011;40603;48.774;8.916;2023-05-10T09:30:02;1.08;;;0.50;;
54705;SDS011;40603;48.774;8.916;2023-05-10T09:32:38;0.35;;;0.35;;
54705;SDS011;40603;48.774;8.916;2023-05-10T09:35:12;0.30;;;0.30;;
54705;SDS011;40603;48.774;8.916;2023-05-10T09:37:39;0.50;;;0.50;;
54705;SDS011;40603;48.774;8.916;2023-05-10T09:40:11;0.95;;;0.38;;
54705;SDS011;40603;48.774;8.916;2023-05-10T09:42:51;0.75;;;0.30;;
54705;SDS011;40603;48.774;8.916;2023-05-10T09:45:19;1.27;;;0.30;;
54705;SDS011;40603;48.774;8.916;2023-05-10T09:47:45;0.68;;;0.45;;
54705;SDS011;40603;48.774;8.916;2023-05-10T09:50:11;0.63;;;0.40;;
54705;SDS011;40603;48.774;8.916;2023-05-10T09:52:45;0.85;;;0.30;;
54705;SDS011;40603;48.774;8.916;2023-05-10T09:55:11;2.03;;;0.40;;
54705;SDS011;40603;48.774;8.916;2023-05-10T09:57:37;0.95;;;0.47;;
54705;SDS011;40603;48.774;8.916;2023-05-10T10:00:03;1.95;;;0.50;;
54705;SDS011;40603;48.774;8.916;2023-05-10T10:02:30;0.40;;;0.40;;
54705;SDS011;40603;48.774;8.916;2023-05-10T10:04:56;0.63;;;0.40;;
54705;SDS011;40603;48.774;8.916;2023-05-10T10:07:22;1.83;;;0.40;;
54705;SDS011;40603;48.774;8.916;2023-05-10T10:09:49;2.17;;;0.43;;
54705;SDS011;40603;48.774;8.916;2023-05-10T10:12:14;0.47;;;0.30;;
54705;SDS011;40603;48.774;8.916;2023-05-10T10:14:40;0.57;;;0.40;;
54705;SDS011;40603;48.774;8.916;2023-05-10T10:17:05;0.77;;;0.40;;
54705;SDS011;40603;48.774;8.916;2023-05-10T10:19:32;2.13;;;0.40;;
54705;SDS011;40603;48.774;8.916;2023-05-10T10:21:58;2.92;;;0.40;;
54705;SDS011;40603;48.774;8.916;2023-05-10T10:24:24;0.40;;;0.40;;
54705;SDS011;40603;48.774;8.916;2023-05-10T10:26:49;1.75;;;0.40;;
54705;SDS011;40603;48.774;8.916;2023-05-10T10:29:26;0.55;;;0.32;;
54705;SDS011;40603;48.774;8.916;2023-05-10T10:35:10;0.30;;;0.30;;
54705;SDS011;40603;48.774;8.916;2023-05-10T10:37:46;0.60;;;0.50;;
54705;SDS011;40603;48.774;8.916;2023-05-10T10:42:56;2.67;;;0.68;;
54705;SDS011;40603;48.774;8.916;2023-05-10T10:45:22;2.30;;;0.40;;
54705;SDS011;40603;48.774;8.916;2023-05-10T10:47:48;0.40;;;0.40;;
54705;SDS011;40603;48.774;8.916;2023-05-10T10:50:14;1.55;;;0.47;;
54705;SDS011;40603;48.774;8.916;2023-05-10T10:52:44;1.08;;;0.60;;
54705;SDS011;40603;48.774;8.916;2023-05-10T10:55:14;3.15;;;0.60;;
54705;SDS011;40603;48.774;8.916;2023-05-10T10:57:55;0.70;;;0.47;;
54705;SDS011;40603;48.774;8.916;2023-05-10T11:00:31;0.50;;;0.50;;
54705;SDS011;40603;48.774;8.916;2023-05-10T11:03:04;3.03;;;0.40;;
54705;SDS011;40603;48.774;8.916;2023-05-10T11:08:07;2.43;;;0.50;;
54705;SDS011;40603;48.774;8.916;2023-05-10T11:11:13;1.38;;;0.70;;
54705;SDS011;40603;48.774;8.916;2023-05-10T11:13:40;1.02;;;0.80;;
54705;SDS011;40603;48.774;8.916;2023-05-10T11:18:39;0.50;;;0.50;;
54705;SDS011;40603;48.774;8.916;2023-05-10T11:21:05;1.55;;;0.55;;
54705;SDS011;40603;48.774;8.916;2023-05-10T11:26:09;4.72;;;0.80;;
54705;SDS011;40603;48.774;8.916;2023-05-10T11:29:09;1.85;;;0.80;;
54705;SDS011;40603;48.774;8.916;2023-05-10T11:31:29;2.15;;;1.00;;
54705;SDS011;40603;48.774;8.916;2023-05-10T11:33:55;2.65;;;0.98;;
54705;SDS011;40603;48.774;8.916;2023-05-10T11:36:25;0.90;;;0.63;;
54705;SDS011;40603;48.774;8.916;2023-05-10T11:38:52;1.38;;;0.60;;
54705;SDS011;40603;48.774;8.916;2023-05-10T11:41:18;0.95;;;0.60;;
54705;SDS011;40603;48.774;8.916;2023-05-10T11:43:46;1.42;;;0.85;;
54705;SDS011;40603;48.774;8.916;2023-05-10T11:46:14;1.63;;;0.70;;
54705;SDS011;40603;48.774;8.916;2023-05-10T11:48:39;2.38;;;0.70;;
54705;SDS011;40603;48.774;8.916;2023-05-10T11:51:06;1.98;;;0.70;;
54705;SDS011;40603;48.774;8.916;2023-05-10T11:53:32;1.65;;;0.82;;
54705;SDS011;40603;48.774;8.916;2023-05-10T11:58:30;0.98;;;0.77;;
54705;SDS011;40603;48.774;8.916;2023-05-10T12:00:56;1.42;;;1.05;;
54705;SDS011;40603;48.774;8.916;2023-05-10T12:03:23;2.03;;;0.80;;
54705;SDS011;40603;48.774;8.916;2023-05-10T12:05:48;5.05;;;0.90;;
54705;SDS011;40603;48.774;8.916;2023-05-10T12:08:14;1.85;;;0.80;;
54705;SDS011;40603;48.774;8.916;2023-05-10T12:10:39;2.08;;;0.70;;
54705;SDS011;40603;48.774;8.916;2023-05-10T12:13:05;3.53;;;0.70;;
54705;SDS011;40603;48.774;8.916;2023-05-10T12:15:31;1.02;;;0.70;;
54705;SDS011;40603;48.774;8.916;2023-05-10T12:17:57;1.40;;;1.02;;
54705;SDS011;40603;48.774;8.916;2023-05-10T12:20:23;1.50;;;0.80;;
54705;SDS011;40603;48.774;8.916;2023-05-10T12:22:52;1.13;;;0.88;;
54705;SDS011;40603;48.774;8.916;2023-05-10T12:25:20;2.10;;;0.88;;
54705;SDS011;40603;48.774;8.916;2023-05-10T12:27:53;0.85;;;0.55;;
54705;SDS011;40603;48.774;8.916;2023-05-10T12:30:21;0.47;;;0.47;;
54705;SDS011;40603;48.774;8.916;2023-05-10T12:32:47;1.00;;;0.60;;
54705;SDS011;40603;48.774;8.916;2023-05-10T12:35:12;2.55;;;0.68;;
54705;SDS011;40603;48.774;8.916;2023-05-10T12:37:37;1.35;;;0.45;;
54705;SDS011;40603;48.774;8.916;2023-05-10T12:40:07;3.97;;;1.02;;
54705;SDS011;40603;48.774;8.916;2023-05-10T12:42:33;3.00;;;0.75;;
54705;SDS011;40603;48.774;8.916;2023-05-10T12:44:59;3.35;;;1.10;;
54705;SDS011;40603;48.774;8.916;2023-05-10T12:47:24;1.25;;;0.55;;
54705;SDS011;40603;48.774;8.916;2023-05-10T12:49:49;3.58;;;0.80;;
54705;SDS011;40603;48.774;8.916;2023-05-10T12:52:16;5.05;;;0.80;;
54705;SDS011;40603;48.774;8.916;2023-05-10T12:54:41;2.70;;;0.70;;
54705;SDS011;40603;48.774;8.916;2023-05-10T12:57:06;1.77;;;0.90;;
54705;SDS011;40603;48.774;8.916;2023-05-10T12:59:31;2.85;;;0.75;;
54705;SDS011;40603;48.774;8.916;2023-05-10T13:01:57;1.77;;;0.90;;
54705;SDS011;40603;48.774;8.916;2023-05-10T13:04:22;2.20;;;0.90;;
54705;SDS011;40603;48.774;8.916;2023-05-10T13:06:48;2.08;;;0.57;;
54705;SDS011;40603;48.774;8.916;2023-05-10T13:09:13;3.65;;;1.00;;
54705;SDS011;40603;48.774;8.916;2023-05-10T13:11:38;4.03;;;0.77;;
54705;SDS011;40603;48.774;8.916;2023-05-10T13:14:04;1.17;;;0.70;;
54705;SDS011;40603;48.774;8.916;2023-05-10T13:16:29;0.90;;;0.57;;
54705;SDS011;40603;48.774;8.916;2023-05-10T13:18:54;2.50;;;0.95;;
54705;SDS011;40603;48.774;8.916;2023-05-10T13:21:20;1.73;;;0.90;;
54705;SDS011;40603;48.774;8.916;2023-05-10T13:23:45;3.85;;;0.98;;
54705;SDS011;40603;48.774;8.916;2023-05-10T13:26:12;1.27;;;0.50;;
54705;SDS011;40603;48.774;8.916;2023-05-10T13:28:37;4.13;;;1.50;;
54705;SDS011;40603;48.774;8.916;2023-05-10T13:31:03;1.40;;;0.98;;
54705;SDS011;40603;48.774;8.916;2023-05-10T13:33:29;2.28;;;0.70;;
54705;SDS011;40603;48.774;8.916;2023-05-10T13:35:55;1.60;;;0.52;;
54705;SDS011;40603;48.774;8.916;2023-05-10T13:38:20;4.20;;;0.60;;
54705;SDS011;40603;48.774;8.916;2023-05-10T13:40:45;2.53;;;0.60;;
54705;SDS011;40603;48.774;8.916;2023-05-10T13:43:11;4.32;;;0.90;;
54705;SDS011;40603;48.774;8.916;2023-05-10T13:45:36;1.23;;;0.80;;
54705;SDS011;40603;48.774;8.916;2023-05-10T13:48:01;1.05;;;0.70;;
54705;SDS011;40603;48.774;8.916;2023-05-10T13:50:27;0.98;;;0.70;;
54705;SDS011;40603;48.774;8.916;2023-05-10T13:52:52;3.13;;;0.50;;
54705;SDS011;40603;48.774;8.916;2023-05-10T13:55:17;0.98;;;0.63;;
54705;SDS011;40603;48.774;8.916;2023-05-10T13:57:43;1.42;;;0.60;;
54705;SDS011;40603;48.774;8.916;2023-05-10T14:00:08;1.05;;;0.60;;
54705;SDS011;40603;48.774;8.916;2023-05-10T14:02:34;0.70;;;0.50;;
54705;SDS011;40603;48.774;8.916;2023-05-10T14:05:00;1.33;;;0.52;;
54705;SDS011;40603;48.774;8.916;2023-05-10T14:07:25;0.85;;;0.70;;
54705;SDS011;40603;48.774;8.916;2023-05-10T14:09:50;1.25;;;0.60;;
54705;SDS011;40603;48.774;8.916;2023-05-10T14:12:16;2.47;;;0.50;;
54705;SDS011;40603;48.774;8.916;2023-05-10T14:14:41;1.55;;;0.68;;
54705;SDS011;40603;48.774;8.916;2023-05-10T14:17:07;0.98;;;0.73;;
54705;SDS011;40603;48.774;8.916;2023-05-10T14:19:32;0.85;;;0.40;;
54705;SDS011;40603;48.774;8.916;2023-05-10T14:21:59;1.48;;;0.60;;
54705;SDS011;40603;48.774;8.916;2023-05-10T14:24:24;0.95;;;0.60;;
54705;SDS011;40603;48.774;8.916;2023-05-10T14:26:50;0.85;;;0.57;;
54705;SDS011;40603;48.774;8.916;2023-05-10T14:29:18;0.95;;;0.50;;
54705;SDS011;40603;48.774;8.916;2023-05-10T14:31:43;1.52;;;0.70;;
54705;SDS011;40603;48.774;8.916;2023-05-10T14:34:09;0.63;;;0.55;;
54705;SDS011;40603;48.774;8.916;2023-05-10T14:36:34;4.57;;;0.70;;
54705;SDS011;40603;48.774;8.916;2023-05-10T14:39:00;2.17;;;0.50;;
54705;SDS011;40603;48.774;8.916;2023-05-10T14:41:25;2.83;;;0.47;;
54705;SDS011;40603;48.774;8.916;2023-05-10T14:43:50;0.40;;;0.40;;
54705;SDS011;40603;48.774;8.916;2023-05-10T14:46:16;2.50;;;0.50;;
54705;SDS011;40603;48.774;8.916;2023-05-10T14:48:41;0.52;;;0.45;;
54705;SDS011;40603;48.774;8.916;2023-05-10T14:51:07;0.57;;;0.50;;
54705;SDS011;40603;48.774;8.916;2023-05-10T14:53:32;0.60;;;0.60;;
54705;SDS011;40603;48.774;8.916;2023-05-10T14:55:57;0.25;;;0.25;;
54705;SDS011;40603;48.774;8.916;2023-05-10T14:58:23;4.28;;;0.60;;
54705;SDS011;40603;48.774;8.916;2023-05-10T15:00:48;1.80;;;0.50;;
54705;SDS011;40603;48.774;8.916;2023-05-10T15:03:13;2.38;;;0.45;;
54705;SDS011;40603;48.774;8.916;2023-05-10T15:05:39;4.97;;;0.30;;
54705;SDS011;40603;48.774;8.916;2023-05-10T15:08:04;0.57;;;0.40;;
54705;SDS011;40603;48.774;8.916;2023-05-10T15:10:30;1.17;;;0.38;;
54705;SDS011;40603;48.774;8.916;2023-05-10T15:12:57;1.23;;;0.35;;
54705;SDS011;40603;48.774;8.916;2023-05-10T15:15:22;0.60;;;0.50;;
54705;SDS011;40603;48.774;8.916;2023-05-10T15:17:48;1.25;;;0.40;;
54705;SDS011;40603;48.774;8.916;2023-05-10T15:20:13;0.65;;;0.50;;